Latest Weather Observations for Oakey

IDQ60901

Issued at 7:15 pm EST Wednesday 30 July 2014 (issued every 10 minutes, with the page automatically refreshed every 10 minutes)

About weather observations | Map of Brisbane area stations | Latest observations for Brisbane area | Other Formats
Station Details ID: 041359 Name: OAKEY AERO Lat: -27.40 Lon: 151.74 Height: 405.69 m
Data from the previous 72 hours. | See also: Recent months at Oakey
Date/Time
EST
Tmp

°C
App
Tmp
°C
Dew
Point
°C
Rel
Hum
%
Delta-T

°C
Wind Press
QNH
hPa
Press
MSL
hPa
Rain
since
9 am
mm
Dir
 
Spd
km/h
Gust
km/h
Spd
kts
Gust
kts
30/07:00pm 12.0 9.3 -5.5 29 6.5 SSW 0 0 0 0 1021.4 - 0.0
30/06:30pm 14.3 10.0 -4.9 26 7.4 SW 9 13 5 7 1021.0 - 0.0
30/06:00pm 15.2 9.8 -4.7 25 7.8 WSW 15 17 8 9 1021.0 1021.1 0.0
30/05:30pm 16.8 11.7 -5.0 22 8.6 WSW 13 15 7 8 1020.5 - 0.0
30/05:00pm 19.7 14.1 -6.0 17 10.3 W 15 19 8 10 1020.4 - 0.0
30/04:30pm 21.6 15.2 -7.0 14 11.4 W 19 24 10 13 1020.1 - 0.0
30/04:00pm 22.3 16.3 -6.5 14 11.7 WSW 17 26 9 14 1019.9 - 0.0
30/03:30pm 22.2 16.8 -4.8 16 11.3 WSW 15 22 8 12 1019.7 - 0.0
30/03:00pm 22.4 16.0 -4.6 16 11.3 WSW 20 30 11 16 1019.8 1020.0 0.0
30/02:30pm 22.2 15.7 -5.6 15 11.5 WSW 20 30 11 16 1019.9 - 0.0
30/02:00pm 22.0 15.5 -5.8 15 11.4 WSW 20 28 11 15 1020.1 - 0.0
30/01:30pm 21.8 14.1 -6.8 14 11.5 W 26 33 14 18 1020.6 - 0.0
30/01:00pm 21.3 15.0 -4.0 18 10.7 SW 20 28 11 15 1021.0 - 0.0
30/12:30pm 20.9 14.8 -4.3 18 10.5 W 19 28 10 15 1021.6 - 0.0
30/12:00pm 20.8 14.6 -3.0 20 10.2 SW 20 24 11 13 1022.2 1022.4 0.0
30/11:30am 19.9 14.9 -1.2 24 9.3 WSW 15 24 8 13 1022.9 - 0.0
30/11:00am 18.9 15.4 1.0 30 8.1 WSW 9 17 5 9 1023.5 - 0.0
30/10:30am 17.6 13.9 -0.2 30 7.8 SSW 9 17 5 9 1023.8 - 0.0
30/10:00am 16.4 13.0 -0.3 32 7.3 SW 7 13 4 7 1024.2 - 0.0
30/09:30am 14.5 12.0 1.4 41 5.8 WSW 4 7 2 4 1024.4 - 0.0
30/09:00am 11.5 9.7 1.5 50 4.3 CALM 0 0 0 0 1024.5 1024.7 0.0
30/08:30am 8.8 6.2 1.2 59 3.2 ESE 4 6 2 3 1024.4 - 0.0
30/08:00am 5.6 2.9 0.6 70 2.0 ESE 4 7 2 4 1024.4 - 0.0
30/07:30am 2.5 -0.7 -0.4 81 1.1 ENE 6 7 3 4 1024.1 - 0.0
30/07:00am -0.5 -4.2 -3.0 83 0.8 E 7 7 4 4 1023.8 - 0.0
30/06:30am -1.6 -5.9 -4.6 80 0.9 ESE 9 11 5 6 1023.7 - 0.0
30/06:00am -1.3 -5.6 -4.6 78 1.0 ENE 9 11 5 6 1023.2 1023.5 0.0
30/05:30am -1.3 -5.5 -4.0 82 0.8 E 9 11 5 6 1023.0 - 0.0
30/05:00am -1.1 -5.0 -4.6 77 1.1 SE 7 9 4 5 1022.9 - 0.0
30/04:30am -0.2 -4.0 -3.6 78 1.1 NNE 7 7 4 4 1022.6 - 0.0
30/04:00am 0.1 -3.7 -4.0 74 1.4 NE 7 7 4 4 1022.5 - 0.0
30/03:30am -0.1 -3.9 -3.8 76 1.2 NNE 7 9 4 5 1022.4 - 0.0
30/03:00am -0.2 -4.4 -4.1 75 1.3 NE 9 11 5 6 1022.4 1022.6 0.0
30/02:30am 0.2 -3.6 -4.1 73 1.5 ESE 7 9 4 5 1022.5 - 0.0
30/02:00am 0.2 -2.6 -3.7 75 1.3 ESE 2 6 1 3 1022.6 - 0.0
30/01:30am 0.8 -3.0 -4.0 70 1.7 ENE 7 9 4 5 1022.8 - 0.0
30/01:00am 1.1 -2.7 -3.9 69 1.8 NE 7 11 4 6 1023.0 - 0.0
30/12:30am 0.9 -3.4 -4.5 67 1.8 NNE 9 11 5 6 1023.0 - 0.0
30/12:00am 1.4 -2.7 -2.7 74 1.5 SE 9 11 5 6 1023.0 1023.2 0.0
 
Date/Time
EST
Tmp

°C
App
Tmp
°C
Dew
Point
°C
Rel
Hum
%
Delta-T

°C
Wind Press
QNH
hPa
Press
MSL
hPa
Rain
since
9 am
mm
Dir
 
Spd
km/h
Gust
km/h
Spd
kts
Gust
kts
29/11:30pm 1.8 -1.8 -3.3 69 1.8 ESE 6 9 3 5 1023.0 - 0.0
29/11:00pm 2.9 -1.2 -3.2 64 2.1 ENE 9 11 5 6 1022.8 - 0.0
29/10:30pm 5.2 1.8 -2.1 59 2.7 NE 6 7 3 4 1022.9 - 0.0
29/10:00pm 4.2 0.4 -3.8 56 2.8 NE 7 9 4 5 1022.8 - 0.0
29/09:30pm 5.4 1.8 -2.0 59 2.8 ENE 7 9 4 5 1022.5 - 0.0
29/09:00pm 4.8 0.3 -3.2 56 2.9 E 11 13 6 7 1022.2 1022.4 0.0
29/08:30pm 6.2 2.6 -4.0 48 3.7 ESE 6 7 3 4 1021.9 - 0.0
29/08:00pm 6.2 2.1 -2.9 52 3.4 NE 9 11 5 6 1021.6 - 0.0
29/07:30pm 7.3 3.4 -1.4 54 3.4 NNE 9 11 5 6 1021.5 - 0.0
29/07:00pm 10.4 8.1 -2.6 40 5.1 CALM 0 6 0 3 1021.5 - 0.0
29/06:30pm 13.0 9.7 -1.3 37 5.9 SE 6 7 3 4 1021.3 - 0.0
29/06:00pm 13.7 10.4 -1.1 36 6.1 SW 6 9 3 5 1021.1 1021.2 0.0
29/05:30pm 16.1 11.9 -1.0 31 7.3 SW 11 13 6 7 1020.9 - 0.0
29/05:00pm 18.5 13.9 -1.3 26 8.6 SSW 13 17 7 9 1020.6 - 0.0
29/04:30pm 20.3 15.0 -0.9 24 9.4 SW 17 22 9 12 1020.4 - 0.0
29/04:00pm 20.9 14.2 -1.0 23 9.8 WSW 24 32 13 17 1020.4 - 0.0
29/03:30pm 21.2 14.6 -0.7 23 9.8 WSW 24 33 13 18 1020.4 - 0.0
29/03:00pm 21.6 14.2 -0.4 23 10.0 SW 28 33 15 18 1020.4 1020.6 0.0
29/02:30pm 21.0 16.3 0.8 26 9.3 SW 15 17 8 9 1020.6 - 0.0
29/02:00pm 21.0 13.8 0.8 26 9.3 WSW 28 39 15 21 1021.0 - 0.0
29/01:30pm 21.0 14.2 0.8 26 9.3 WSW 26 39 14 21 1021.3 - 0.0
29/01:00pm 20.2 14.1 0.1 26 9.1 W 22 37 12 20 1021.7 - 0.0
29/12:30pm 19.9 13.8 0.4 27 8.9 WSW 22 32 12 17 1022.1 - 0.0
29/12:00pm 19.4 13.3 0.4 28 8.6 W 22 33 12 18 1022.7 1022.9 0.0
29/11:30am 18.6 12.9 0.7 30 8.1 W 20 30 11 16 1023.2 - 0.0
29/11:00am 18.0 13.0 1.1 32 7.7 W 17 24 9 13 1023.7 - 0.0
29/10:30am 16.4 11.7 0.9 35 6.9 WSW 15 22 8 12 1023.9 - 0.0
29/10:00am 15.5 11.9 3.0 43 5.8 WSW 11 15 6 8 1024.1 - 0.0
29/09:30am 12.8 9.4 1.8 47 4.8 WSW 9 11 5 6 1024.3 - 0.0
29/09:00am 10.1 7.0 1.5 55 3.7 SSW 7 9 4 5 1024.3 1024.5 0.0
29/08:30am 6.9 3.9 1.0 66 2.4 SSE 6 7 3 4 1024.3 - 0.0
29/08:00am 4.2 2.2 0.2 75 1.6 CALM 0 0 0 0 1024.0 - 0.0
29/07:30am 1.7 -0.7 -0.5 85 0.8 NE 2 6 1 3 1023.9 - 0.0
29/07:00am -2.2 -6.1 -4.7 83 0.7 E 7 9 4 5 1023.3 - 0.0
29/06:30am -2.6 -6.5 -5.1 83 0.7 ENE 7 9 4 5 1023.2 - 0.0
29/06:00am -2.6 -6.9 -4.6 86 0.5 ESE 9 9 5 5 1022.8 1023.0 0.0
29/05:30am -2.2 -6.4 -4.2 86 0.6 SE 9 11 5 6 1022.5 - 0.0
29/05:00am -1.4 -5.2 -3.9 83 0.8 NE 7 7 4 4 1022.2 - 0.0
29/04:30am -1.5 -5.7 -4.2 82 0.8 E 9 11 5 6 1022.0 - 0.0
29/04:00am -1.2 -4.9 -4.4 79 1.0 NE 6 7 3 4 1021.9 - 0.0
29/03:30am -0.9 -4.7 -3.4 83 0.8 ESE 7 9 4 5 1021.8 - 0.0
29/03:00am -1.2 -5.1 -4.4 79 1.0 SE 7 9 4 5 1021.9 1022.1 0.0
29/02:30am 0.3 -3.5 -3.4 76 1.3 NNE 7 7 4 4 1022.1 - 0.0
29/02:00am 0.0 -3.7 -4.1 74 1.4 NE 6 7 3 4 1022.2 - 0.0
29/01:30am 0.6 -3.2 -3.5 74 1.4 E 7 9 4 5 1022.3 - 0.0
29/01:00am 0.3 -3.5 -4.0 73 1.5 E 7 7 4 4 1022.5 - 0.0
29/12:30am 1.0 -3.2 -3.7 71 1.7 NE 9 11 5 6 1022.8 - 0.0
29/12:00am 0.7 -3.2 -4.7 67 1.8 NE 7 7 4 4 1023.1 1023.3 0.0
 
Date/Time
EST
Tmp

°C
App
Tmp
°C
Dew
Point
°C
Rel
Hum
%
Delta-T

°C
Wind Press
QNH
hPa
Press
MSL
hPa
Rain
since
9 am
mm
Dir
 
Spd
km/h
Gust
km/h
Spd
kts
Gust
kts
28/11:30pm 1.4 -2.4 -3.6 69 1.8 NE 7 9 4 5 1023.2 - 0.0
28/11:00pm 1.8 -2.4 -4.1 65 2.1 NE 9 11 5 6 1023.3 - 0.0
28/10:30pm 2.5 -1.3 -3.6 64 2.1 NE 7 9 4 5 1023.5 - 0.0
28/10:00pm 2.2 -2.0 -3.9 64 2.1 NE 9 9 5 5 1023.5 - 0.0
28/09:30pm 3.4 -0.4 -4.1 58 2.6 NE 7 9 4 5 1023.5 - 0.0
28/09:00pm 3.6 -0.2 -3.4 60 2.5 NE 7 9 4 5 1023.2 1023.5 0.0
28/08:30pm 4.0 -0.1 -3.0 60 2.5 NE 9 11 5 6 1023.0 - 0.0
28/08:00pm 6.6 3.0 -2.3 53 3.3 NE 7 9 4 5 1022.9 - 0.0
28/07:30pm 8.1 5.7 -2.8 46 4.1 CALM 0 0 0 0 1022.7 - 0.0
28/07:00pm 11.5 8.5 0.9 48 4.5 WNW 6 6 3 3 1022.2 - 0.0
28/06:30pm 12.6 8.9 -0.3 41 5.4 W 9 9 5 5 1022.0 - 0.0
28/06:00pm 12.9 9.0 -1.8 36 6.0 W 9 11 5 6 1021.8 1022.0 0.0
28/05:30pm 15.9 11.7 -1.2 31 7.3 NW 11 13 6 7 1021.6 - 0.0
28/05:00pm 17.5 12.9 -1.2 28 8.1 NW 13 17 7 9 1021.5 - 0.0
28/04:30pm 19.2 14.6 -1.3 25 9.0 NW 13 17 7 9 1021.2 - 0.0
28/04:00pm 19.3 14.2 -1.7 24 9.1 WNW 15 24 8 13 1021.2 - 0.0
28/03:30pm 19.8 14.9 -0.8 25 9.1 WNW 15 24 8 13 1021.1 - 0.0
28/03:00pm 19.6 14.3 -0.9 25 9.0 W 17 22 9 12 1021.3 1021.5 0.0
28/02:30pm 19.1 13.1 -1.4 25 8.9 W 20 28 11 15 1021.6 - 0.0
28/02:00pm 18.9 13.1 -1.5 25 8.9 WNW 19 28 10 15 1022.0 - 0.0
28/01:30pm 18.6 13.4 -0.2 28 8.4 W 17 24 9 13 1022.2 - 0.0
28/01:00pm 17.9 12.7 0.1 30 7.9 W 17 26 9 14 1022.7 - 0.0
28/12:30pm 17.9 13.7 1.4 33 7.5 W 13 20 7 11 1023.2 - 0.0
28/12:00pm 17.3 12.0 1.7 35 7.1 WNW 19 26 10 14 1023.9 - 0.0
28/11:30am 16.8 11.9 2.0 37 6.8 W 17 30 9 16 1024.5 - 0.0
28/11:00am 16.4 11.5 2.1 38 6.5 W 17 24 9 13 1024.9 - 0.0
28/10:30am 15.0 11.0 2.9 44 5.6 W 13 19 7 10 1025.2 - 0.0
28/10:00am 13.6 10.1 3.7 51 4.6 W 11 15 6 8 1025.5 - 0.0
28/09:30am 11.6 8.5 3.4 57 3.7 W 9 13 5 7 1025.5 - 0.0
28/09:00am 9.7 6.8 2.8 62 3.0 WSW 7 11 4 6 1025.5 1025.8 0.0
28/08:30am 7.4 4.6 3.1 74 1.9 SE 7 9 4 5 1025.2 - 0.0
28/08:00am 4.6 1.2 2.0 83 1.1 S 9 11 5 6 1024.9 - 0.0
28/07:30am 1.7 -1.0 0.2 90 0.6 E 4 9 2 5 1024.3 - 0.0
28/07:00am -1.4 -3.8 -3.4 86 0.6 CALM 0 0 0 0 1024.1 - 0.0
28/06:30am -0.5 -3.9 -1.9 90 0.5 NE 6 7 3 4 1023.7 - 0.0
28/06:00am -1.0 -4.5 -2.7 88 0.5 NE 6 7 3 4 1023.6 1023.8 0.0
28/05:30am -0.3 -3.7 -1.9 89 0.6 ENE 6 6 3 3 1023.6 - 0.0
28/05:00am 0.1 -2.0 -1.0 92 0.4 CALM 0 0 0 0 1023.7 - 0.0
28/04:30am 0.3 -3.2 -1.1 90 0.5 ENE 7 9 4 5 1023.6 - 0.0
28/04:00am -0.8 -4.4 -2.2 90 0.5 ESE 7 9 4 5 1023.2 - 0.0
28/03:30am -0.4 -4.4 -2.0 89 0.5 ESE 9 11 5 6 1023.6 - 0.0
28/03:00am -0.2 -4.2 -2.6 84 0.8 E 9 9 5 5 1023.7 1023.9 0.0
28/02:30am 0.1 -3.4 -2.6 82 0.9 E 6 7 3 4 1023.7 - 0.0
28/02:00am 0.9 -2.7 -2.1 80 1.1 NE 7 9 4 5 1023.8 - 0.0
28/01:30am 1.0 -2.3 -1.1 86 0.8 NE 6 7 3 4 1024.1 - 0.0
28/01:00am 0.6 -3.4 -1.9 83 0.9 NE 9 11 5 6 1024.3 - 0.0
28/12:30am 1.6 -2.0 -2.0 77 1.3 ENE 7 9 4 5 1024.3 - 0.0
28/12:00am 1.3 -2.7 -2.3 77 1.3 E 9 11 5 6 1024.5 1024.7 0.0
 
Date/Time
EST
Tmp

°C
App
Tmp
°C
Dew
Point
°C
Rel
Hum
%
Delta-T

°C
Wind Press
QNH
hPa
Press
MSL
hPa
Rain
since
9 am
mm
Dir
 
Spd
km/h
Gust
km/h
Spd
kts
Gust
kts
27/11:30pm 2.9 -0.4 -1.1 75 1.5 ESE 6 7 3 4 1024.6 - 0.0
27/11:00pm 3.6 1.6 -0.4 75 1.5 CALM 0 0 0 0 1024.8 - 0.0
27/10:30pm 3.2 -0.6 -0.8 75 1.5 NE 9 13 5 7 1024.9 - 0.0
27/10:00pm 4.5 1.2 0.3 74 1.6 NNE 7 9 4 5 1024.8 - 0.0
27/09:30pm 5.6 2.1 1.5 75 1.7 NE 9 13 5 7 1024.7 - 0.0
27/09:00pm 4.4 1.0 -1.8 64 2.3 NE 6 7 3 4 1024.7 1024.9 0.0
27/08:30pm 8.8 7.3 3.2 68 2.5 CALM 0 0 0 0 1024.7 - 0.0
27/08:00pm 7.8 4.6 0.8 61 2.9 WSW 7 9 4 5 1024.5 - 0.0
27/07:30pm 10.6 6.6 2.9 59 3.4 WSW 13 17 7 9 1024.3 - 0.0

Latest Capital City Observations: Canberra | Sydney | Melbourne | Brisbane | Adelaide | Perth | Hobart | Darwin

Other Formats:

Comma delimited format used in spreadsheet applications
http://www.bom.gov.au/fwo/IDQ60901/IDQ60901.94552.axf

JavaScript Object Notation format (JSON) in row-major order
http://www.bom.gov.au/fwo/IDQ60901/IDQ60901.94552.json